Time;durP1;ratioP1;P1;durP2;ratioP2;P2;SDS_P1;SDS_P2;PMS_P1;PMS_P2;Temp;Humidity;BMP_temperature;BMP_pressure;BME280_temperature;BME280_humidity;BME280_pressure;Samples;Min_cycle;Max_cycle;Signal;HPM_P1;HPM_P2
2022/11/20 00:02:45;;;;;;;51.27;18.50;;;;;;;;;;6231647;23;20203;-89
2022/11/20 00:05:50;;;;;;;43.80;17.73;;;;;;;;;;6230661;22;20171;-90
2022/11/20 00:08:59;;;;;;;44.47;17.57;;;;;;;;;;6212364;22;20210;-90
2022/11/20 00:12:05;;;;;;;43.07;17.23;;;;;;;;;;6214058;23;20198;-91
2022/11/20 00:15:10;;;;;;;45.03;17.90;;;;;;;;;;6213607;23;20192;-92
2022/11/20 00:18:16;;;;;;;46.07;18.13;;;;;;;;;;6230989;22;20171;-91
2022/11/20 00:21:24;;;;;;;45.93;18.00;;;;;;;;;;6215397;22;20168;-89
2022/11/20 00:24:30;;;;;;;47.87;19.60;;;;;;;;;;6228829;23;20211;-88
2022/11/20 00:27:36;;;;;;;41.57;17.13;;;;;;;;;;6212950;23;20256;-90
2022/11/20 00:30:41;;;;;;;44.63;17.43;;;;;;;;;;6212628;23;20167;-91
2022/11/20 00:33:47;;;;;;;43.03;16.97;;;;;;;;;;6231273;23;20163;-91
2022/11/20 00:36:52;;;;;;;44.43;18.07;;;;;;;;;;6214740;23;20146;-90
2022/11/20 00:39:59;;;;;;;44.10;18.30;;;;;;;;;;6232596;23;20171;-89
2022/11/20 00:43:04;;;;;;;41.77;17.23;;;;;;;;;;6214992;23;20228;-90
2022/11/20 00:46:11;;;;;;;45.77;17.93;;;;;;;;;;6214773;23;20167;-91
2022/11/20 00:49:17;;;;;;;48.83;17.63;;;;;;;;;;6214933;23;20246;-92
2022/11/20 00:52:22;;;;;;;44.00;18.03;;;;;;;;;;6232055;23;20262;-90
2022/11/20 00:55:28;;;;;;;44.10;17.63;;;;;;;;;;6215308;23;20171;-89
2022/11/20 00:58:34;;;;;;;48.57;18.30;;;;;;;;;;6232041;23;20171;-92
2022/11/20 01:01:39;;;;;;;46.27;17.83;;;;;;;;;;6214767;23;20195;-91
2022/11/20 01:04:45;;;;;;;50.77;18.37;;;;;;;;;;6231002;23;20182;-90
2022/11/20 01:07:50;;;;;;;39.47;16.90;;;;;;;;;;6213410;23;20150;-94
2022/11/20 01:11:01;;;;;;;41.67;16.87;;;;;;;;;;6230718;22;20194;-90
2022/11/20 01:14:09;;;;;;;45.07;17.77;;;;;;;;;;6212545;23;20183;-92
2022/11/20 01:17:14;;;;;;;45.07;18.20;;;;;;;;;;6213236;23;20257;-90
2022/11/20 01:20:19;;;;;;;47.67;17.43;;;;;;;;;;6213425;23;20187;-92
2022/11/20 01:23:23;;;;;;;45.90;17.80;;;;;;;;;;6230698;23;20236;-92
2022/11/20 01:26:31;;;;;;;43.53;17.33;;;;;;;;;;6230998;23;20211;-93
2022/11/20 01:29:36;;;;;;;42.63;17.30;;;;;;;;;;6212893;23;20167;-88
2022/11/20 01:32:41;;;;;;;49.57;19.20;;;;;;;;;;6213459;23;20182;-91
2022/11/20 01:35:46;;;;;;;45.50;18.50;;;;;;;;;;6213412;22;20163;-92
2022/11/20 01:38:53;;;;;;;43.87;18.20;;;;;;;;;;6231722;22;20220;-91
2022/11/20 01:49:39;;;;;;;40.37;17.80;;;;;;;;;;6231901;22;20544;-93
2022/11/20 01:52:46;;;;;;;44.70;18.57;;;;;;;;;;6231577;22;20265;-91
2022/11/20 01:55:53;;;;;;;45.17;18.47;;;;;;;;;;6230520;22;20167;-91
2022/11/20 01:59:02;;;;;;;43.50;18.07;;;;;;;;;;6212466;23;20207;-92
2022/11/20 02:02:07;;;;;;;42.80;17.43;;;;;;;;;;6212702;23;20167;-93
2022/11/20 02:05:16;;;;;;;48.33;18.13;;;;;;;;;;6210219;23;20171;-92
2022/11/20 02:08:22;;;;;;;41.77;17.33;;;;;;;;;;6211344;23;20159;-93
2022/11/20 02:11:28;;;;;;;42.00;17.13;;;;;;;;;;6211341;23;20170;-91
2022/11/20 02:14:33;;;;;;;43.60;18.60;;;;;;;;;;6227080;23;20171;-92
2022/11/20 02:17:39;;;;;;;47.90;17.40;;;;;;;;;;6212078;23;20151;-91
2022/11/20 02:20:45;;;;;;;45.13;18.53;;;;;;;;;;6228682;22;20610;-91
2022/11/20 02:24:09;;;;;;;39.53;16.77;;;;;;;;;;6212243;23;20218;-91
2022/11/20 02:27:15;;;;;;;40.67;16.97;;;;;;;;;;6212472;23;20287;-94
2022/11/20 02:30:20;;;;;;;43.60;16.57;;;;;;;;;;6229983;23;20167;-92
2022/11/20 02:33:25;;;;;;;42.63;17.63;;;;;;;;;;6230175;23;20213;-92
2022/11/20 02:36:31;;;;;;;46.23;17.97;;;;;;;;;;6213208;23;20182;-93
2022/11/20 02:39:38;;;;;;;42.60;16.73;;;;;;;;;;6229955;23;20215;-93
2022/11/20 02:42:43;;;;;;;42.60;16.73;;;;;;;;;;6212378;23;20171;-89
2022/11/20 02:45:53;;;;;;;46.23;17.67;;;;;;;;;;6230323;23;20233;-91
2022/11/20 02:48:58;;;;;;;42.73;16.70;;;;;;;;;;6211251;22;20630;-91
2022/11/20 02:52:03;;;;;;;39.63;16.10;;;;;;;;;;6212078;23;20206;-90
2022/11/20 02:55:10;;;;;;;41.77;17.00;;;;;;;;;;6228470;23;20187;-93
2022/11/20 02:58:15;;;;;;;36.47;15.60;;;;;;;;;;6211297;23;20222;-91
2022/11/20 03:01:20;;;;;;;45.03;17.60;;;;;;;;;;6229665;22;20171;-90
2022/11/20 03:04:25;;;;;;;50.47;18.20;;;;;;;;;;6230100;22;20171;-90
2022/11/20 03:07:30;;;;;;;41.47;17.17;;;;;;;;;;6212221;23;20179;-94
2022/11/20 03:10:37;;;;;;;43.30;16.47;;;;;;;;;;6211556;23;20221;-89
2022/11/20 03:13:42;;;;;;;39.00;16.23;;;;;;;;;;6228342;22;20195;-90
2022/11/20 03:16:47;;;;;;;42.07;17.47;;;;;;;;;;6212728;23;20155;-90
2022/11/20 03:19:52;;;;;;;44.47;17.77;;;;;;;;;;6211916;22;20167;-91
2022/11/20 03:22:58;;;;;;;40.37;16.77;;;;;;;;;;6229835;23;20224;-92
2022/11/20 03:26:11;;;;;;;43.17;17.20;;;;;;;;;;6210469;23;20174;-92
2022/11/20 03:29:17;;;;;;;40.80;16.20;;;;;;;;;;6227457;23;20180;-91
2022/11/20 03:32:23;;;;;;;39.40;16.70;;;;;;;;;;6211670;23;20227;-92
2022/11/20 03:35:28;;;;;;;39.27;15.90;;;;;;;;;;6210164;23;20171;-92
2022/11/20 03:38:34;;;;;;;36.10;15.17;;;;;;;;;;6212154;23;20167;-92
2022/11/20 03:41:41;;;;;;;45.50;16.50;;;;;;;;;;6227925;23;20255;-91
2022/11/20 03:44:47;;;;;;;36.17;14.53;;;;;;;;;;6207417;23;20164;-89
2022/11/20 03:47:52;;;;;;;31.30;12.27;;;;;;;;;;6228119;23;20191;-90
2022/11/20 03:51:08;;;;;;;34.03;12.93;;;;;;;;;;6209307;23;20194;-91
2022/11/20 03:54:14;;;;;;;28.20;11.93;;;;;;;;;;6209753;23;20151;-91
2022/11/20 03:57:20;;;;;;;30.97;12.67;;;;;;;;;;6226577;23;20168;-93
2022/11/20 04:00:25;;;;;;;33.23;13.37;;;;;;;;;;6207236;23;20592;-90
2022/11/20 04:03:30;;;;;;;28.17;12.03;;;;;;;;;;6209454;23;20160;-91
2022/11/20 04:06:37;;;;;;;31.27;12.90;;;;;;;;;;6228429;23;20179;-91
2022/11/20 04:09:42;;;;;;;32.60;13.17;;;;;;;;;;6212642;23;20240;-91
2022/11/20 04:12:48;;;;;;;29.83;12.07;;;;;;;;;;6229584;22;20195;-92
2022/11/20 04:15:58;;;;;;;30.27;12.63;;;;;;;;;;6208913;23;20171;-92
2022/11/20 04:19:05;;;;;;;28.90;13.10;;;;;;;;;;6210512;23;20155;-92
2022/11/20 04:22:11;;;;;;;33.13;13.43;;;;;;;;;;6227554;23;20191;-91
2022/11/20 04:25:17;;;;;;;32.77;12.90;;;;;;;;;;6228051;23;20170;-91
2022/11/20 04:28:23;;;;;;;28.67;12.83;;;;;;;;;;6230019;23;20626;-91
2022/11/20 04:31:29;;;;;;;30.70;12.93;;;;;;;;;;6216166;22;20275;-90
2022/11/20 04:34:35;;;;;;;30.97;12.53;;;;;;;;;;6233818;22;20159;-90
2022/11/20 04:37:41;;;;;;;32.70;12.67;;;;;;;;;;6216187;23;20167;-90
2022/11/20 04:40:46;;;;;;;35.03;13.67;;;;;;;;;;6215591;23;20172;-91
2022/11/20 04:43:53;;;;;;;33.13;13.30;;;;;;;;;;6215083;22;20239;-89
2022/11/20 04:46:58;;;;;;;34.83;13.97;;;;;;;;;;6214275;22;20179;-90
2022/11/20 04:50:04;;;;;;;36.60;14.20;;;;;;;;;;6212913;23;20163;-91
2022/11/20 04:53:09;;;;;;;36.17;14.03;;;;;;;;;;6231065;23;20245;-89
2022/11/20 04:56:15;;;;;;;32.03;13.87;;;;;;;;;;6232423;22;20187;-91
2022/11/20 04:59:22;;;;;;;29.87;13.37;;;;;;;;;;6213245;23;20171;-89
2022/11/20 05:06:19;;;;;;;34.70;13.77;;;;;;;;;;6213171;23;20182;-88
2022/11/20 05:09:24;;;;;;;36.57;14.53;;;;;;;;;;6233119;23;20167;-91
2022/11/20 05:12:29;;;;;;;36.17;14.83;;;;;;;;;;6231214;22;20191;-91
2022/11/20 05:15:36;;;;;;;36.33;14.93;;;;;;;;;;6215678;22;20207;-91
2022/11/20 05:18:42;;;;;;;36.17;15.10;;;;;;;;;;6214935;23;20168;-91
2022/11/20 05:21:48;;;;;;;39.43;15.40;;;;;;;;;;6214756;23;20190;-89
2022/11/20 05:24:53;;;;;;;43.93;16.50;;;;;;;;;;6231583;22;20166;-89
2022/11/20 05:27:59;;;;;;;38.90;16.00;;;;;;;;;;6232358;22;20151;-92
2022/11/20 05:31:10;;;;;;;34.47;14.33;;;;;;;;;;6214670;22;20179;-89
2022/11/20 05:34:15;;;;;;;44.83;16.53;;;;;;;;;;6214219;22;20219;-92
2022/11/20 05:37:20;;;;;;;42.57;15.87;;;;;;;;;;6212428;23;20179;-90
2022/11/20 05:40:25;;;;;;;36.30;15.10;;;;;;;;;;6212043;23;20167;-91
2022/11/20 05:43:30;;;;;;;38.67;15.70;;;;;;;;;;6228674;23;20175;-92
2022/11/20 05:46:36;;;;;;;36.03;14.40;;;;;;;;;;6211580;22;20232;-92
2022/11/20 05:50:08;;;;;;;44.60;16.23;;;;;;;;;;6212181;22;20171;-92
2022/11/20 05:53:14;;;;;;;41.83;16.53;;;;;;;;;;6229861;23;20245;-91
2022/11/20 05:56:20;;;;;;;38.03;15.37;;;;;;;;;;6212443;23;20213;-91
2022/11/20 05:59:25;;;;;;;37.67;14.80;;;;;;;;;;6211815;22;20167;-90
2022/11/20 06:02:33;;;;;;;41.97;15.93;;;;;;;;;;6212808;22;20211;-90
2022/11/20 06:05:38;;;;;;;40.93;16.53;;;;;;;;;;6212798;22;20167;-90
2022/11/20 06:08:43;;;;;;;43.20;16.53;;;;;;;;;;6231561;22;20187;-91
2022/11/20 06:11:49;;;;;;;44.73;17.20;;;;;;;;;;6214167;23;20167;-91
2022/11/20 06:14:54;;;;;;;42.90;15.77;;;;;;;;;;6230226;23;20279;-94
2022/11/20 06:18:01;;;;;;;41.30;16.10;;;;;;;;;;6230267;22;20147;-91
2022/11/20 06:21:08;;;;;;;41.10;16.13;;;;;;;;;;6231140;22;20156;-91
2022/11/20 06:24:13;;;;;;;42.13;16.33;;;;;;;;;;6215803;23;20167;-91
2022/11/20 06:27:19;;;;;;;39.33;16.27;;;;;;;;;;6215280;23;20171;-93
2022/11/20 06:30:25;;;;;;;41.73;16.77;;;;;;;;;;6213938;23;20170;-90
2022/11/20 06:33:32;;;;;;;41.10;16.13;;;;;;;;;;6213727;22;20197;-91
2022/11/20 06:36:38;;;;;;;48.43;17.87;;;;;;;;;;6214957;22;20450;-90
2022/11/20 06:39:44;;;;;;;46.90;17.53;;;;;;;;;;6231627;22;20162;-89
2022/11/20 06:42:49;;;;;;;46.63;17.83;;;;;;;;;;6213843;23;20219;-90
2022/11/20 06:49:45;;;;;;;49.47;17.97;;;;;;;;;;6210491;22;20159;-90
2022/11/20 06:52:50;;;;;;;48.57;17.60;;;;;;;;;;6212420;23;20186;-92
2022/11/20 06:55:57;;;;;;;46.00;17.10;;;;;;;;;;6212678;23;20162;-92
2022/11/20 06:59:05;;;;;;;45.03;17.77;;;;;;;;;;6231773;22;20190;-90
2022/11/20 07:02:12;;;;;;;43.57;16.80;;;;;;;;;;6214298;22;20175;-91
2022/11/20 07:05:19;;;;;;;45.83;16.43;;;;;;;;;;6234414;22;20697;-89
2022/11/20 07:08:25;;;;;;;36.60;15.50;;;;;;;;;;6230472;22;20167;-89
2022/11/20 07:11:30;;;;;;;37.17;15.80;;;;;;;;;;6213995;23;20183;-90
2022/11/20 07:14:35;;;;;;;34.43;14.43;;;;;;;;;;6214609;23;20223;-91
2022/11/20 07:17:41;;;;;;;31.03;12.70;;;;;;;;;;6213799;22;20166;-90
2022/11/20 07:20:48;;;;;;;31.50;12.77;;;;;;;;;;6216081;22;20202;-90
2022/11/20 07:23:54;;;;;;;28.50;11.80;;;;;;;;;;6213738;23;20190;-89
2022/11/20 07:27:00;;;;;;;32.57;11.93;;;;;;;;;;6214595;23;20163;-91
2022/11/20 07:30:06;;;;;;;28.60;11.80;;;;;;;;;;6231870;22;20191;-92
2022/11/20 07:33:11;;;;;;;25.73;10.90;;;;;;;;;;6212530;23;20261;-91
2022/11/20 07:36:18;;;;;;;26.67;11.13;;;;;;;;;;6231049;22;20197;-92
2022/11/20 07:39:24;;;;;;;29.87;12.53;;;;;;;;;;6233333;22;20214;-92
2022/11/20 07:42:29;;;;;;;26.87;10.87;;;;;;;;;;6215352;23;20167;-91
2022/11/20 07:45:34;;;;;;;25.10;10.40;;;;;;;;;;6217898;22;20211;-92
2022/11/20 07:48:40;;;;;;;20.30;9.50;;;;;;;;;;6218534;23;20210;-92
2022/11/20 07:51:47;;;;;;;24.13;10.20;;;;;;;;;;6217935;22;20697;-90
2022/11/20 07:54:52;;;;;;;20.47;9.67;;;;;;;;;;6217220;23;20245;-92
2022/11/20 07:57:58;;;;;;;21.40;9.13;;;;;;;;;;6217750;23;20178;-91
2022/11/20 08:01:05;;;;;;;21.20;9.40;;;;;;;;;;6217806;23;20168;-91
2022/11/20 08:04:11;;;;;;;19.67;9.40;;;;;;;;;;6218478;23;20214;-91
2022/11/20 08:07:17;;;;;;;19.60;9.20;;;;;;;;;;6216464;23;20245;-90
2022/11/20 08:10:22;;;;;;;17.23;8.07;;;;;;;;;;6218469;23;20167;-90
2022/11/20 08:16:51;;;;;;;18.40;8.60;;;;;;;;;;6235604;23;20688;-91
2022/11/20 08:19:57;;;;;;;17.73;8.60;;;;;;;;;;6218552;23;20560;-92
2022/11/20 08:23:06;;;;;;;33.43;14.00;;;;;;;;;;6217157;23;20162;-93
2022/11/20 08:26:12;;;;;;;20.80;9.83;;;;;;;;;;6217536;22;20172;-90
2022/11/20 08:29:18;;;;;;;21.50;10.33;;;;;;;;;;6218436;23;20159;-90
2022/11/20 08:32:24;;;;;;;18.87;9.33;;;;;;;;;;6235492;23;20187;-91
2022/11/20 08:35:29;;;;;;;19.00;8.57;;;;;;;;;;6216403;23;20237;-91
2022/11/20 08:38:36;;;;;;;17.43;8.13;;;;;;;;;;6218442;22;20171;-90
2022/11/20 08:41:41;;;;;;;16.03;7.20;;;;;;;;;;6217093;22;20210;-90
2022/11/20 08:44:46;;;;;;;15.03;7.67;;;;;;;;;;6237743;23;20182;-91
2022/11/20 08:52:12;;;;;;;20.73;9.10;;;;;;;;;;6233744;22;20183;-90
2022/11/20 08:55:19;;;;;;;19.27;8.77;;;;;;;;;;6216378;23;20650;-93
2022/11/20 08:58:24;;;;;;;16.20;8.00;;;;;;;;;;6216140;23;20662;-92
2022/11/20 09:01:30;;;;;;;19.47;8.63;;;;;;;;;;6217230;23;20175;-92
2022/11/20 09:04:36;;;;;;;19.47;9.13;;;;;;;;;;6219474;22;20626;-91
2022/11/20 09:07:48;;;;;;;17.00;8.30;;;;;;;;;;6217424;23;20178;-89
2022/11/20 09:10:55;;;;;;;16.17;7.73;;;;;;;;;;6217403;22;20240;-92
2022/11/20 09:14:02;;;;;;;20.60;9.07;;;;;;;;;;6218082;23;20190;-90
2022/11/20 09:17:13;;;;;;;18.50;8.57;;;;;;;;;;6217437;23;20167;-90
2022/11/20 09:20:18;;;;;;;22.23;9.40;;;;;;;;;;6215768;23;20171;-92
2022/11/20 09:23:25;;;;;;;21.03;9.20;;;;;;;;;;6217889;22;20171;-90
2022/11/20 09:29:59;;;;;;;20.77;9.40;;;;;;;;;;6219544;23;20152;-91
2022/11/20 09:33:06;;;;;;;19.23;9.13;;;;;;;;;;6216556;23;20167;-91
2022/11/20 09:36:11;;;;;;;19.17;8.93;;;;;;;;;;6217210;22;20303;-90
2022/11/20 09:39:16;;;;;;;17.10;8.70;;;;;;;;;;6217122;22;20171;-90
2022/11/20 09:42:33;;;;;;;16.53;7.50;;;;;;;;;;6216739;23;20188;-90
2022/11/20 09:45:46;;;;;;;20.90;9.30;;;;;;;;;;6216612;23;20249;-90
2022/11/20 09:49:01;;;;;;;17.83;8.10;;;;;;;;;;6224748;22;20147;-91
2022/11/20 09:52:13;;;;;;;18.47;9.43;;;;;;;;;;6215834;22;20224;-92
2022/11/20 09:55:21;;;;;;;21.53;9.97;;;;;;;;;;6218592;23;20211;-90
2022/11/20 10:12:09;;;;;;;18.77;9.30;;;;;;;;;;6222258;23;20198;-91
2022/11/20 10:15:27;;;;;;;17.97;8.87;;;;;;;;;;6217942;22;20285;-89
2022/11/20 10:18:41;;;;;;;18.33;8.73;;;;;;;;;;6217905;22;20215;-90
2022/11/20 10:21:53;;;;;;;21.00;9.90;;;;;;;;;;6216509;23;20163;-92
2022/11/20 10:25:02;;;;;;;23.47;9.90;;;;;;;;;;6217345;23;20542;-91
2022/11/20 10:31:40;;;;;;;22.80;10.03;;;;;;;;;;6215881;23;20220;-90
2022/11/20 10:34:48;;;;;;;23.57;10.30;;;;;;;;;;6216435;23;20519;-92
2022/11/20 10:37:57;;;;;;;35.87;15.07;;;;;;;;;;6216071;23;20167;-92
2022/11/20 10:47:43;;;;;;;25.10;10.87;;;;;;;;;;6214805;23;20195;-91
2022/11/20 10:50:53;;;;;;;22.63;10.33;;;;;;;;;;6213256;23;20190;-90
2022/11/20 10:54:01;;;;;;;20.37;9.73;;;;;;;;;;6214975;22;20195;-90
2022/11/20 10:57:10;;;;;;;19.47;9.70;;;;;;;;;;6217095;23;20187;-93
2022/11/20 11:00:16;;;;;;;18.87;9.00;;;;;;;;;;6214384;23;20179;-91
2022/11/20 11:03:25;;;;;;;19.33;8.83;;;;;;;;;;6214084;23;20231;-88
2022/11/20 11:06:36;;;;;;;19.33;8.43;;;;;;;;;;6213923;23;20652;-91
2022/11/20 11:09:43;;;;;;;18.33;8.37;;;;;;;;;;6212839;23;20170;-90
2022/11/20 11:12:50;;;;;;;17.90;8.37;;;;;;;;;;6213904;23;20599;-90
2022/11/20 11:15:56;;;;;;;17.23;7.70;;;;;;;;;;6216910;22;20213;-91
2022/11/20 11:19:16;;;;;;;14.57;7.20;;;;;;;;;;6217215;23;20264;-91
2022/11/20 11:22:22;;;;;;;14.77;7.07;;;;;;;;;;6215670;23;20207;-93
2022/11/20 11:25:29;;;;;;;16.07;6.93;;;;;;;;;;6215200;23;20167;-91
2022/11/20 11:28:35;;;;;;;12.53;6.70;;;;;;;;;;6213377;23;20294;-91
2022/11/20 11:31:41;;;;;;;14.20;7.30;;;;;;;;;;6213702;23;20175;-92
2022/11/20 11:35:00;;;;;;;12.40;7.17;;;;;;;;;;6214997;22;20219;-90
2022/11/20 11:38:14;;;;;;;12.73;6.50;;;;;;;;;;6215991;22;20220;-89
2022/11/20 11:41:22;;;;;;;13.43;6.40;;;;;;;;;;6215872;23;20171;-90
2022/11/20 11:51:52;;;;;;;10.40;5.67;;;;;;;;;;6239664;23;20190;-89
2022/11/20 11:55:00;;;;;;;12.20;6.27;;;;;;;;;;6220667;23;20238;-88
2022/11/20 11:58:22;;;;;;;12.07;6.00;;;;;;;;;;6222162;22;20284;-89
2022/11/20 12:01:30;;;;;;;11.70;4.65;;;;;;;;;;6219347;23;20151;-91
2022/11/20 12:04:51;;;;;;;7.68;3.70;;;;;;;;;;6217509;23;20159;-89
2022/11/20 12:08:01;;;;;;;6.78;3.67;;;;;;;;;;6218306;23;20255;-89
2022/11/20 12:11:14;;;;;;;9.10;4.23;;;;;;;;;;6218402;23;20155;-91
2022/11/20 12:14:23;;;;;;;5.60;3.53;;;;;;;;;;6218506;22;20207;-90
2022/11/20 12:17:30;;;;;;;8.50;3.53;;;;;;;;;;6217311;23;20195;-90
2022/11/20 12:20:42;;;;;;;11.13;3.85;;;;;;;;;;6220669;23;20235;-90
2022/11/20 12:27:26;;;;;;;6.97;3.23;;;;;;;;;;6236987;23;20241;-91
2022/11/20 12:30:35;;;;;;;7.45;2.85;;;;;;;;;;6219592;23;20233;-89
2022/11/20 12:33:56;;;;;;;5.03;2.67;;;;;;;;;;6221145;23;20175;-91
2022/11/20 12:37:07;;;;;;;5.03;2.55;;;;;;;;;;6220794;23;20234;-91
2022/11/20 12:40:26;;;;;;;4.77;2.50;;;;;;;;;;6215986;23;20195;-92
2022/11/20 12:47:08;;;;;;;5.65;2.97;;;;;;;;;;6233572;23;20212;-90
2022/11/20 12:50:18;;;;;;;6.20;2.95;;;;;;;;;;6215512;23;20279;-90
2022/11/20 12:53:30;;;;;;;6.95;3.17;;;;;;;;;;6216401;23;20171;-90
2022/11/20 12:56:52;;;;;;;6.50;2.77;;;;;;;;;;6217244;23;20667;-89
2022/11/20 13:00:09;;;;;;;6.32;2.53;;;;;;;;;;6217420;23;20210;-90
2022/11/20 13:03:44;;;;;;;5.57;2.22;;;;;;;;;;6217048;23;20176;-91
2022/11/20 13:06:52;;;;;;;3.08;2.00;;;;;;;;;;6207127;23;20203;-88
2022/11/20 13:09:59;;;;;;;2.97;2.15;;;;;;;;;;6217200;23;20191;-90
2022/11/20 13:16:36;;;;;;;5.53;2.20;;;;;;;;;;6220130;23;20191;-88
2022/11/20 13:19:58;;;;;;;5.65;2.53;;;;;;;;;;6217217;23;20171;-90
2022/11/20 13:23:14;;;;;;;4.05;2.33;;;;;;;;;;6222942;23;20171;-88
2022/11/20 13:26:23;;;;;;;6.93;3.08;;;;;;;;;;6220198;23;20159;-90
2022/11/20 13:29:34;;;;;;;6.43;3.22;;;;;;;;;;6218195;23;20175;-88
2022/11/20 13:32:53;;;;;;;5.20;2.70;;;;;;;;;;6237883;23;20232;-89
2022/11/20 13:39:29;;;;;;;3.90;2.13;;;;;;;;;;6235780;23;20215;-92
2022/11/20 13:42:42;;;;;;;3.57;2.27;;;;;;;;;;6219388;23;20176;-90
2022/11/20 13:46:01;;;;;;;6.43;3.40;;;;;;;;;;6215378;23;20151;-90
2022/11/20 13:52:42;;;;;;;5.28;2.70;;;;;;;;;;6220907;23;20190;-88
2022/11/20 13:55:53;;;;;;;7.63;3.30;;;;;;;;;;6220001;23;20203;-89
2022/11/20 13:59:04;;;;;;;10.03;3.37;;;;;;;;;;6215190;23;20154;-88
2022/11/20 14:02:19;;;;;;;15.87;3.80;;;;;;;;;;6219213;23;20223;-90
2022/11/20 14:15:40;;;;;;;16.70;5.50;;;;;;;;;;6236847;23;20266;-92
2022/11/20 14:18:48;;;;;;;9.03;4.50;;;;;;;;;;6219777;23;20242;-92
2022/11/20 14:21:59;;;;;;;8.43;3.95;;;;;;;;;;6219384;23;20202;-90
2022/11/20 14:25:06;;;;;;;8.27;4.00;;;;;;;;;;6217750;23;20167;-88
2022/11/20 14:28:14;;;;;;;4.97;3.20;;;;;;;;;;6220382;23;20174;-88
2022/11/20 14:31:26;;;;;;;7.73;3.47;;;;;;;;;;6221219;23;20195;-89
2022/11/20 14:34:48;;;;;;;8.50;4.43;;;;;;;;;;6220205;23;20147;-90
2022/11/20 14:38:09;;;;;;;11.70;5.13;;;;;;;;;;6219760;23;20162;-91
2022/11/20 14:41:22;;;;;;;6.83;3.43;;;;;;;;;;6219796;23;20170;-91
2022/11/20 14:44:33;;;;;;;9.23;4.60;;;;;;;;;;6216748;23;20237;-90
2022/11/20 14:47:57;;;;;;;11.53;4.77;;;;;;;;;;6218413;23;20155;-89
2022/11/20 14:51:03;;;;;;;14.73;4.83;;;;;;;;;;6216061;23;20218;-90
2022/11/20 14:54:23;;;;;;;14.77;5.23;;;;;;;;;;6219664;23;20218;-92
2022/11/20 14:57:38;;;;;;;6.53;3.23;;;;;;;;;;6219358;23;20168;-91
2022/11/20 15:00:45;;;;;;;11.13;3.73;;;;;;;;;;6219735;23;20171;-91
2022/11/20 15:04:00;;;;;;;10.97;4.17;;;;;;;;;;6218498;23;20170;-89
2022/11/20 15:07:05;;;;;;;6.17;2.90;;;;;;;;;;6217274;23;20159;-90
2022/11/20 15:10:13;;;;;;;5.67;3.07;;;;;;;;;;6217071;23;20175;-88
2022/11/20 15:13:25;;;;;;;12.57;5.77;;;;;;;;;;6217235;23;20214;-90
2022/11/20 15:16:30;;;;;;;6.20;4.17;;;;;;;;;;6213492;23;20194;-91
2022/11/20 15:19:36;;;;;;;7.87;3.20;;;;;;;;;;6231948;23;20175;-92
2022/11/20 15:22:41;;;;;;;7.20;4.33;;;;;;;;;;6229681;23;20171;-89
2022/11/20 15:25:48;;;;;;;7.00;3.47;;;;;;;;;;6210010;23;20199;-91
2022/11/20 15:28:54;;;;;;;8.23;3.87;;;;;;;;;;6210941;23;20167;-90
2022/11/20 15:31:59;;;;;;;8.93;4.47;;;;;;;;;;6210524;23;20199;-90
2022/11/20 15:35:04;;;;;;;6.22;3.50;;;;;;;;;;6211176;23;20242;-92
2022/11/20 15:38:10;;;;;;;6.33;3.20;;;;;;;;;;6211469;23;20172;-91
2022/11/20 15:41:15;;;;;;;6.90;4.27;;;;;;;;;;6211822;23;20175;-89
2022/11/20 15:44:22;;;;;;;7.37;3.63;;;;;;;;;;6209515;23;20178;-90
2022/11/20 15:47:28;;;;;;;7.93;2.83;;;;;;;;;;6210281;23;20195;-89
2022/11/20 15:50:37;;;;;;;4.23;2.63;;;;;;;;;;6209914;23;20174;-90
2022/11/20 15:53:43;;;;;;;4.43;2.50;;;;;;;;;;6213119;23;20280;-91
2022/11/20 15:56:49;;;;;;;5.30;2.60;;;;;;;;;;6211277;23;20195;-91
2022/11/20 15:59:56;;;;;;;4.40;2.30;;;;;;;;;;6213423;23;20591;-92
2022/11/20 16:03:01;;;;;;;6.43;2.20;;;;;;;;;;6213370;23;20190;-91
2022/11/20 16:06:06;;;;;;;7.17;3.03;;;;;;;;;;6212434;23;20172;-89
2022/11/20 16:09:12;;;;;;;8.40;4.43;;;;;;;;;;6213588;23;20236;-90
2022/11/20 16:15:47;;;;;;;7.33;3.73;;;;;;;;;;6232495;23;20642;-91
2022/11/20 16:18:52;;;;;;;7.13;3.40;;;;;;;;;;6213573;23;20685;-92
2022/11/20 16:21:59;;;;;;;6.53;3.23;;;;;;;;;;6214238;23;20163;-90
2022/11/20 16:25:05;;;;;;;6.77;3.00;;;;;;;;;;6213434;23;20170;-91
2022/11/20 16:28:10;;;;;;;6.57;2.80;;;;;;;;;;6214025;23;20240;-89
2022/11/20 16:31:17;;;;;;;5.87;3.20;;;;;;;;;;6213512;23;20178;-90
2022/11/20 16:34:23;;;;;;;5.37;3.03;;;;;;;;;;6212662;23;20175;-92
2022/11/20 16:37:28;;;;;;;4.43;2.53;;;;;;;;;;6212884;23;20255;-92
2022/11/20 16:40:34;;;;;;;5.00;2.60;;;;;;;;;;6213572;23;20175;-89
2022/11/20 16:43:40;;;;;;;5.97;2.40;;;;;;;;;;6212389;23;20211;-91
2022/11/20 16:46:47;;;;;;;7.00;2.97;;;;;;;;;;6213676;23;20216;-90
2022/11/20 16:49:52;;;;;;;5.00;2.33;;;;;;;;;;6213251;23;20190;-90
2022/11/20 16:52:57;;;;;;;6.93;2.23;;;;;;;;;;6212310;23;20249;-90
2022/11/20 16:56:09;;;;;;;6.37;2.50;;;;;;;;;;6212272;23;20212;-90
2022/11/20 16:59:24;;;;;;;6.13;2.07;;;;;;;;;;6213740;23;20260;-89
2022/11/20 17:02:34;;;;;;;4.70;2.40;;;;;;;;;;6214514;23;20287;-91
2022/11/20 17:05:40;;;;;;;7.53;3.70;;;;;;;;;;6212956;23;20167;-91
2022/11/20 17:08:47;;;;;;;5.80;2.70;;;;;;;;;;6211685;23;20166;-92
2022/11/20 17:11:52;;;;;;;7.03;2.70;;;;;;;;;;6212779;23;20171;-89
2022/11/20 17:14:57;;;;;;;6.03;2.70;;;;;;;;;;6213750;23;20507;-91
2022/11/20 17:18:03;;;;;;;5.07;2.70;;;;;;;;;;6213637;23;20306;-91
2022/11/20 17:21:09;;;;;;;6.27;3.07;;;;;;;;;;6214035;23;20170;-94
2022/11/20 17:24:15;;;;;;;3.07;1.90;;;;;;;;;;6214582;23;20166;-92
2022/11/20 17:27:20;;;;;;;4.53;2.13;;;;;;;;;;6214505;23;20167;-89
2022/11/20 17:30:26;;;;;;;7.93;3.17;;;;;;;;;;6216660;23;20195;-90
2022/11/20 17:34:05;;;;;;;7.20;2.23;;;;;;;;;;6214728;23;20179;-90
2022/11/20 17:37:11;;;;;;;4.13;2.00;;;;;;;;;;6214826;23;20260;-90
2022/11/20 17:40:17;;;;;;;3.60;2.30;;;;;;;;;;6213793;23;20171;-91
2022/11/20 17:43:22;;;;;;;5.87;2.60;;;;;;;;;;6216007;23;20170;-89
2022/11/20 17:46:29;;;;;;;4.87;1.93;;;;;;;;;;6216880;23;20147;-88
2022/11/20 17:49:35;;;;;;;5.60;2.73;;;;;;;;;;6217113;23;20155;-88
2022/11/20 17:52:42;;;;;;;5.27;2.37;;;;;;;;;;6217276;22;20190;-89
2022/11/20 17:59:19;;;;;;;8.40;2.93;;;;;;;;;;6233146;23;20167;-91
2022/11/20 18:02:25;;;;;;;7.73;3.77;;;;;;;;;;6215335;23;20175;-90
2022/11/20 18:05:30;;;;;;;5.27;3.03;;;;;;;;;;6214320;23;20214;-88
2022/11/20 18:08:38;;;;;;;9.40;4.83;;;;;;;;;;6214370;23;20183;-89
2022/11/20 18:11:46;;;;;;;8.90;4.50;;;;;;;;;;6231316;23;20243;-90
2022/11/20 18:14:55;;;;;;;14.13;6.17;;;;;;;;;;6212950;23;20622;-90
2022/11/20 18:18:01;;;;;;;14.17;6.87;;;;;;;;;;6214458;23;20171;-86
2022/11/20 18:21:06;;;;;;;12.93;6.17;;;;;;;;;;6215845;23;20175;-91
2022/11/20 18:24:13;;;;;;;7.40;3.67;;;;;;;;;;6213478;23;20171;-89
2022/11/20 18:27:19;;;;;;;10.70;4.33;;;;;;;;;;6213072;23;20191;-91
2022/11/20 18:30:29;;;;;;;8.97;3.87;;;;;;;;;;6217125;23;20159;-89
2022/11/20 18:33:35;;;;;;;5.17;3.30;;;;;;;;;;6232112;23;20171;-88
2022/11/20 18:36:42;;;;;;;5.77;2.70;;;;;;;;;;6214348;23;20202;-89
2022/11/20 18:39:49;;;;;;;8.27;4.13;;;;;;;;;;6213317;23;20175;-90
2022/11/20 18:46:26;;;;;;;12.50;4.70;;;;;;;;;;6213506;23;20197;-88
2022/11/20 18:49:32;;;;;;;8.93;4.90;;;;;;;;;;6212104;23;20195;-87
2022/11/20 18:52:40;;;;;;;9.20;5.23;;;;;;;;;;6211548;23;20662;-88
2022/11/20 18:55:47;;;;;;;9.20;4.93;;;;;;;;;;6211713;23;20222;-89
2022/11/20 18:58:52;;;;;;;11.33;6.60;;;;;;;;;;6212128;23;20175;-90
2022/11/20 19:01:57;;;;;;;9.20;4.40;;;;;;;;;;6212456;23;20163;-88
2022/11/20 19:05:02;;;;;;;11.17;5.00;;;;;;;;;;6212009;23;20214;-86
2022/11/20 19:08:11;;;;;;;19.07;7.23;;;;;;;;;;6211035;23;20163;-91
2022/11/20 19:11:17;;;;;;;20.03;9.37;;;;;;;;;;6211014;23;20238;-91
2022/11/20 19:14:22;;;;;;;16.33;8.53;;;;;;;;;;6210632;23;20178;-91
2022/11/20 19:17:28;;;;;;;26.50;10.73;;;;;;;;;;6211391;23;20361;-90
2022/11/20 19:20:33;;;;;;;27.47;13.20;;;;;;;;;;6210183;23;20653;-88
2022/11/20 19:23:39;;;;;;;27.00;12.30;;;;;;;;;;6228441;23;20175;-89
2022/11/20 19:26:46;;;;;;;19.10;9.00;;;;;;;;;;6212923;23;20167;-90
2022/11/20 19:29:51;;;;;;;23.83;10.33;;;;;;;;;;6212462;22;20167;-89
2022/11/20 19:32:56;;;;;;;20.03;8.30;;;;;;;;;;6211250;23;20187;-91
2022/11/20 19:36:09;;;;;;;13.30;6.33;;;;;;;;;;6210549;23;20269;-88
2022/11/20 19:39:14;;;;;;;14.63;5.90;;;;;;;;;;6214060;23;20159;-90
2022/11/20 19:42:21;;;;;;;10.30;5.07;;;;;;;;;;6215642;23;20171;-88
2022/11/20 19:45:28;;;;;;;12.53;5.30;;;;;;;;;;6212909;23;20179;-89
2022/11/20 19:48:33;;;;;;;10.73;5.67;;;;;;;;;;6213001;23;20215;-89
2022/11/20 19:51:39;;;;;;;11.47;5.43;;;;;;;;;;6245416;23;20239;-89
2022/11/20 19:54:44;;;;;;;12.93;6.20;;;;;;;;;;6221022;23;20209;-90
2022/11/20 19:57:51;;;;;;;9.50;4.57;;;;;;;;;;6137514;23;20251;-90
2022/11/20 20:00:56;;;;;;;12.53;5.70;;;;;;;;;;6148534;23;20212;-89
2022/11/20 20:04:03;;;;;;;10.10;5.90;;;;;;;;;;6182701;23;20273;-91